Atlantic Beach, North Carolina
Current Conditions -  °F | °C
As of 1:58 PM on Friday 24 Oct 2014 (Local Time) from KMRH Reporting Station
Clear Clear  
Wind Chill: 19°   Ceiling: Unl
Heat Index: 19°   Visibility: 10mi
Dew Point:   Wind: 5mph
Humidity: 50%   Direction: 290°WNW
Pressure: 29.98"   Gusts: NA
Location:  34.7°N, 76.74°W
Report Text: KMRH 241758Z AUTO 29004KT 10SM CLR 19/08 A2998 RMK AO2 SLP153 T01890083 10200 20122 58018 TSNO
Loading
Personal Weather Stations






























Interactive Weather Map
Tropical Storm Tracking
New forecast layout! Learn more

10-Day Weather Forecast

Advertisements
Track Severe Weather on mobile